createdAt,value
2023-01-26T00:01:17.430Z,75.31
2023-01-26T00:03:44.997Z,75.70
2023-01-26T00:06:15.201Z,75.75
2023-01-26T00:08:48.592Z,75.62
2023-01-26T00:11:17.878Z,75.29
2023-01-26T00:13:44.893Z,74.63
2023-01-26T00:16:15.619Z,74.64
2023-01-26T00:18:43.157Z,75.09
2023-01-26T00:21:21.151Z,75.26
2023-01-26T00:23:49.343Z,75.13
2023-01-26T00:26:18.418Z,75.00
2023-01-26T00:28:45.058Z,74.60
2023-01-26T00:31:20.362Z,74.81
2023-01-26T00:33:47.063Z,75.03
2023-01-26T00:36:13.740Z,74.59
2023-01-26T00:38:40.494Z,74.63
2023-01-26T00:41:09.313Z,74.89
2023-01-26T00:43:35.918Z,75.15
2023-01-26T00:46:02.530Z,75.23
2023-01-26T00:48:29.102Z,75.22
2023-01-26T00:50:55.688Z,75.92
2023-01-26T00:53:22.237Z,75.70
2023-01-26T00:55:48.857Z,75.36
2023-01-26T00:58:15.441Z,76.03
2023-01-26T01:00:42.084Z,76.07
2023-01-26T01:03:08.733Z,75.78
2023-01-26T01:05:35.667Z,76.06
2023-01-26T01:08:02.540Z,76.88
2023-01-26T01:10:29.452Z,76.13
2023-01-26T01:12:56.614Z,76.35
2023-01-26T01:15:24.321Z,76.58
2023-01-26T01:17:51.178Z,77.40
2023-01-26T01:20:17.887Z,78.15
2023-01-26T01:22:46.550Z,78.15
2023-01-26T01:25:13.309Z,78.12
2023-01-26T01:27:39.953Z,78.09
2023-01-26T01:30:08.236Z,78.75
2023-01-26T01:32:36.185Z,78.24
2023-01-26T01:35:03.120Z,79.07
2023-01-26T01:37:30.567Z,78.09
2023-01-26T01:39:57.219Z,78.19
2023-01-26T01:42:24.342Z,78.19
2023-01-26T01:45:29.451Z,78.63
2023-01-26T01:47:59.301Z,78.01
2023-01-26T01:50:27.521Z,78.04
2023-01-26T01:52:55.624Z,77.47
2023-01-26T01:55:24.670Z,77.29
2023-01-26T01:57:55.531Z,77.01
2023-01-26T02:00:23.724Z,77.26
2023-01-26T02:03:11.354Z,77.14
2023-01-26T02:05:59.591Z,77.90
2023-01-26T02:08:33.763Z,77.73
2023-01-26T02:11:10.791Z,77.63
2023-01-26T02:13:37.806Z,78.15
2023-01-26T02:16:04.868Z,78.43
2023-01-26T02:18:31.603Z,78.10
2023-01-26T02:21:04.805Z,78.73
2023-01-26T02:27:00.736Z,79.34
2023-01-26T02:29:28.864Z,79.20
2023-01-26T02:31:56.291Z,78.31
2023-01-26T02:34:25.198Z,78.71
2023-01-26T02:36:59.183Z,78.88
2023-01-26T02:39:48.779Z,78.83
2023-01-26T02:42:34.973Z,78.39
2023-01-26T02:45:01.639Z,77.98
2023-01-26T02:47:29.996Z,78.43
2023-01-26T02:49:58.271Z,79.39
2023-01-26T02:52:27.892Z,79.06
2023-01-26T02:55:18.218Z,79.76
2023-01-26T02:57:45.734Z,79.68
2023-01-26T03:00:19.235Z,79.30
2023-01-26T03:02:47.778Z,78.99
2023-01-26T03:05:15.154Z,79.18
2023-01-26T03:07:42.215Z,79.66
2023-01-26T03:10:10.504Z,79.69
2023-01-26T03:12:37.619Z,79.20
2023-01-26T03:15:24.041Z,81.13
2023-01-26T03:18:12.054Z,80.69
2023-01-26T03:20:57.968Z,79.95
2023-01-26T03:23:43.345Z,80.86
2023-01-26T03:26:31.074Z,81.07
2023-01-26T03:28:57.733Z,81.16
2023-01-26T03:31:24.445Z,81.34
2023-01-26T03:33:52.543Z,81.05
2023-01-26T03:36:19.367Z,80.46
2023-01-26T03:38:46.070Z,80.36
2023-01-26T03:41:31.800Z,80.80
2023-01-26T03:44:18.766Z,80.81
2023-01-26T03:47:04.259Z,79.52
2023-01-26T03:49:49.466Z,78.70
2023-01-26T03:52:34.830Z,79.23
2023-01-26T03:55:21.148Z,79.39
2023-01-26T03:57:48.735Z,78.64
2023-01-26T04:00:15.943Z,79.00
2023-01-26T04:03:03.581Z,78.42
2023-01-26T04:05:48.872Z,77.77
2023-01-26T04:08:24.577Z,77.55
2023-01-26T04:10:57.092Z,76.58
2023-01-26T04:13:43.755Z,76.23
2023-01-26T04:16:36.065Z,77.12
2023-01-26T04:19:21.389Z,77.13
2023-01-26T04:21:48.045Z,76.75
2023-01-26T04:24:22.143Z,77.75
2023-01-26T04:26:53.269Z,77.82
2023-01-26T04:29:24.271Z,77.00
2023-01-26T04:31:51.407Z,77.23
2023-01-26T04:34:20.699Z,77.19
2023-01-26T04:36:47.427Z,78.27
2023-01-26T04:39:15.899Z,77.74
2023-01-26T04:41:47.079Z,77.11
2023-01-26T04:44:16.799Z,77.89
2023-01-26T04:46:43.530Z,77.95
2023-01-26T04:49:12.957Z,77.35
2023-01-26T04:51:39.906Z,77.05
2023-01-26T04:54:06.765Z,76.72
2023-01-26T04:56:37.081Z,76.58
2023-01-26T04:59:06.980Z,77.42
2023-01-26T05:01:35.810Z,76.99
2023-01-26T05:04:06.142Z,77.55
2023-01-26T05:06:33.963Z,77.07
2023-01-26T05:09:00.760Z,76.91
2023-01-26T05:11:28.221Z,77.11
2023-01-26T05:14:13.309Z,77.67
2023-01-26T05:17:18.206Z,77.11
2023-01-26T05:19:59.440Z,77.40
2023-01-26T05:22:40.010Z,77.09
2023-01-26T05:25:29.649Z,78.06
2023-01-26T05:28:02.006Z,77.60
2023-01-26T05:30:29.256Z,77.51
2023-01-26T05:33:01.571Z,78.02
2023-01-26T05:35:28.535Z,78.51
2023-01-26T05:37:56.192Z,78.36
2023-01-26T05:40:24.767Z,77.25
2023-01-26T05:42:53.178Z,78.02
2023-01-26T05:48:08.709Z,78.31
2023-01-26T05:50:35.563Z,78.02
2023-01-26T05:53:13.844Z,78.52
2023-01-26T05:55:40.592Z,78.48
2023-01-26T05:58:07.403Z,78.44
2023-01-26T06:00:34.044Z,78.82
2023-01-26T06:03:07.609Z,77.80
2023-01-26T06:05:34.686Z,78.64
2023-01-26T06:08:07.643Z,78.25
2023-01-26T06:10:48.410Z,77.82
2023-01-26T06:13:44.068Z,78.04
2023-01-26T06:16:20.914Z,77.99
2023-01-26T06:18:49.878Z,78.16
2023-01-26T06:21:17.711Z,78.15
2023-01-26T06:23:44.474Z,79.16
2023-01-26T06:26:11.997Z,79.14
2023-01-26T06:28:39.180Z,79.04
2023-01-26T06:31:08.191Z,78.66
2023-01-26T06:33:37.048Z,79.57
2023-01-26T06:36:06.110Z,79.65
2023-01-26T06:38:33.151Z,79.87
2023-01-26T06:41:05.174Z,80.49
2023-01-26T06:43:34.218Z,80.26
2023-01-26T06:46:02.546Z,80.70
2023-01-26T06:48:32.180Z,81.00
2023-01-26T06:51:19.406Z,79.56
2023-01-26T06:53:57.920Z,79.62
2023-01-26T06:56:32.677Z,80.50
2023-01-26T06:59:15.546Z,81.06
2023-01-26T07:02:20.720Z,81.33
2023-01-26T07:04:48.419Z,81.26
2023-01-26T07:07:15.460Z,82.04
2023-01-26T07:09:42.390Z,81.12
2023-01-26T07:12:09.442Z,80.54
2023-01-26T07:14:36.162Z,80.74
2023-01-26T07:17:03.126Z,80.07
2023-01-26T07:19:31.388Z,80.27
2023-01-26T07:21:58.155Z,80.36
2023-01-26T07:24:25.291Z,80.37
2023-01-26T07:26:52.167Z,80.57
2023-01-26T07:29:19.038Z,80.41
2023-01-26T07:31:45.786Z,79.59
2023-01-26T07:34:12.909Z,80.50
2023-01-26T07:36:39.913Z,81.17
2023-01-26T07:39:08.548Z,80.52
2023-01-26T07:41:35.526Z,80.60
2023-01-26T07:44:12.584Z,81.04
2023-01-26T07:46:39.992Z,80.90
2023-01-26T07:49:07.110Z,80.63
2023-01-26T07:51:33.992Z,81.21
2023-01-26T07:54:00.701Z,81.62
2023-01-26T07:56:27.304Z,80.74
2023-01-26T07:58:55.138Z,81.33
2023-01-26T08:01:22.251Z,81.14
2023-01-26T08:03:53.517Z,81.19
2023-01-26T08:06:21.251Z,81.01
2023-01-26T08:08:51.114Z,81.00
2023-01-26T08:11:19.341Z,80.87
2023-01-26T08:13:45.973Z,81.02
2023-01-26T08:16:13.106Z,80.15
2023-01-26T08:18:44.985Z,80.13
2023-01-26T08:21:13.499Z,79.45
2023-01-26T08:23:40.374Z,79.19
2023-01-26T08:26:09.861Z,79.74
2023-01-26T08:28:36.968Z,80.03
2023-01-26T08:31:12.061Z,80.51
2023-01-26T08:33:40.146Z,80.39
2023-01-26T08:36:10.483Z,79.73
2023-01-26T08:38:37.264Z,79.46
2023-01-26T08:41:04.770Z,79.43
2023-01-26T08:43:31.371Z,79.18
2023-01-26T08:45:58.372Z,78.88
2023-01-26T08:48:25.177Z,78.32
2023-01-26T08:51:03.259Z,79.11
2023-01-26T08:53:32.381Z,78.22
2023-01-26T08:56:03.007Z,78.91
2023-01-26T08:58:29.973Z,77.70
2023-01-26T09:00:56.599Z,77.06
2023-01-26T09:03:23.245Z,77.11
2023-01-26T09:05:49.898Z,77.18
2023-01-26T09:08:16.544Z,76.47
2023-01-26T09:10:45.321Z,75.68
2023-01-26T09:13:11.984Z,74.78
2023-01-26T09:15:38.907Z,75.25
2023-01-26T09:18:05.847Z,75.11
2023-01-26T09:20:32.555Z,75.24
2023-01-26T09:22:59.159Z,74.91
2023-01-26T09:25:25.850Z,74.04
2023-01-26T09:27:52.565Z,73.56
2023-01-26T09:30:19.254Z,73.62
2023-01-26T09:32:45.961Z,73.30
2023-01-26T09:35:14.498Z,72.58
2023-01-26T09:37:43.107Z,72.99
2023-01-26T09:40:18.143Z,73.05
2023-01-26T09:42:59.873Z,72.54
2023-01-26T09:45:40.848Z,72.34
2023-01-26T09:48:19.706Z,72.35
2023-01-26T09:51:13.262Z,72.23
2023-01-26T09:54:19.069Z,73.24
2023-01-26T09:56:45.746Z,73.71
2023-01-26T09:59:28.041Z,73.45
2023-01-26T10:02:17.815Z,72.93
2023-01-26T10:04:49.308Z,73.64
2023-01-26T10:07:15.964Z,72.23
2023-01-26T10:09:50.893Z,71.96
2023-01-26T10:12:28.521Z,72.10
2023-01-26T10:15:02.894Z,71.75
2023-01-26T10:17:35.146Z,72.12
2023-01-26T10:20:17.830Z,71.10
2023-01-26T10:22:47.441Z,71.84
2023-01-26T10:25:33.699Z,71.94
2023-01-26T10:28:07.231Z,71.94
2023-01-26T10:30:33.913Z,71.21
2023-01-26T10:33:00.623Z,70.73
2023-01-26T10:35:27.460Z,70.30
2023-01-26T10:37:54.204Z,70.00
2023-01-26T10:40:21.454Z,70.94
2023-01-26T10:42:59.275Z,69.89
2023-01-26T10:45:31.681Z,69.50
2023-01-26T10:48:16.273Z,68.65
2023-01-26T10:50:43.001Z,68.16
2023-01-26T10:53:17.278Z,68.54
2023-01-26T10:55:43.897Z,69.26
2023-01-26T10:58:41.688Z,69.52
2023-01-26T11:01:15.465Z,69.42
2023-01-26T11:03:56.980Z,69.93
2023-01-26T11:06:28.124Z,69.18
2023-01-26T11:09:07.844Z,70.01
2023-01-26T11:11:34.413Z,70.66
2023-01-26T11:14:21.441Z,69.99
2023-01-26T11:16:55.691Z,70.39
2023-01-26T11:19:44.212Z,70.20
2023-01-26T11:22:20.740Z,69.90
2023-01-26T11:25:02.947Z,69.45
2023-01-26T11:27:43.271Z,70.54
2023-01-26T11:30:23.199Z,68.82
2023-01-26T11:32:55.685Z,68.89
2023-01-26T11:35:40.656Z,69.73
2023-01-26T11:38:31.847Z,69.56
2023-01-26T11:41:24.883Z,69.06
2023-01-26T11:44:28.165Z,70.24
2023-01-26T11:47:03.302Z,69.09
2023-01-26T11:50:02.583Z,69.72
2023-01-26T11:52:55.975Z,69.84
2023-01-26T11:55:48.326Z,69.08
2023-01-26T11:58:32.899Z,70.37
2023-01-26T12:01:03.306Z,69.92
2023-01-26T12:03:47.552Z,69.21
2023-01-26T12:06:20.257Z,69.45
2023-01-26T12:08:59.982Z,69.75
2023-01-26T12:11:40.854Z,69.57
2023-01-26T12:14:21.270Z,69.28
2023-01-26T12:17:17.979Z,69.29
2023-01-26T12:20:23.069Z,68.94
2023-01-26T12:22:59.308Z,69.84
2023-01-26T12:25:32.905Z,70.18
2023-01-26T12:28:12.973Z,69.88
2023-01-26T12:31:07.979Z,70.02
2023-01-26T12:33:36.277Z,69.81
2023-01-26T12:36:33.334Z,69.59
2023-01-26T12:39:13.229Z,68.92
2023-01-26T12:42:17.278Z,68.77
2023-01-26T12:44:51.880Z,69.19
2023-01-26T12:47:34.358Z,69.47
2023-01-26T12:50:30.171Z,69.15
2023-01-26T12:53:21.782Z,69.06
2023-01-26T12:56:14.449Z,68.78
2023-01-26T12:58:45.281Z,68.65
2023-01-26T13:01:16.070Z,69.79
2023-01-26T13:03:45.991Z,70.28
2023-01-26T13:06:12.546Z,69.22
2023-01-26T13:08:51.512Z,68.89
2023-01-26T13:11:56.991Z,69.18
2023-01-26T13:14:29.173Z,69.72
2023-01-26T13:16:56.607Z,70.13
2023-01-26T13:19:41.946Z,68.85
2023-01-26T13:22:24.034Z,68.64
2023-01-26T13:24:56.705Z,68.80
2023-01-26T13:27:30.899Z,69.01
2023-01-26T13:29:57.715Z,68.86
2023-01-26T13:32:24.371Z,68.91
2023-01-26T13:35:00.321Z,69.48
2023-01-26T13:37:53.365Z,67.57
2023-01-26T13:40:25.177Z,67.93
2023-01-26T13:43:06.081Z,68.72
2023-01-26T13:45:43.971Z,68.54
2023-01-26T13:48:16.460Z,68.84
2023-01-26T13:50:43.375Z,68.88
2023-01-26T13:53:28.145Z,69.82
2023-01-26T13:55:58.899Z,69.90
2023-01-26T13:58:26.294Z,68.89
2023-01-26T14:00:59.493Z,69.26
2023-01-26T14:03:26.380Z,67.97
2023-01-26T14:06:00.591Z,67.87
2023-01-26T14:08:27.686Z,68.16
2023-01-26T14:10:55.523Z,67.93
2023-01-26T14:13:38.055Z,67.21
2023-01-26T14:16:06.385Z,66.71
2023-01-26T14:18:33.303Z,66.89
2023-01-26T14:21:05.766Z,67.49
2023-01-26T14:23:36.799Z,67.25
2023-01-26T14:26:10.755Z,67.85
2023-01-26T14:28:42.581Z,67.91
2023-01-26T14:31:26.527Z,69.06
2023-01-26T14:33:57.619Z,67.64
2023-01-26T14:36:27.732Z,67.46
2023-01-26T14:38:55.988Z,67.47
2023-01-26T14:41:31.686Z,67.43
2023-01-26T14:44:01.846Z,67.56
2023-01-26T14:46:38.623Z,66.99
2023-01-26T14:49:18.492Z,66.06
2023-01-26T14:51:47.423Z,66.99
2023-01-26T14:54:32.222Z,67.28
2023-01-26T14:57:00.305Z,66.64
2023-01-26T14:59:37.507Z,66.95
2023-01-26T15:02:17.742Z,67.20
2023-01-26T15:04:50.511Z,67.27
2023-01-26T15:07:37.468Z,65.37
2023-01-26T15:10:26.181Z,65.56
2023-01-26T15:13:07.026Z,64.71
2023-01-26T15:15:39.695Z,65.27
2023-01-26T15:18:18.817Z,65.46
2023-01-26T15:21:00.695Z,65.90
2023-01-26T15:23:35.930Z,65.72
2023-01-26T15:26:30.283Z,66.07
2023-01-26T15:29:07.050Z,65.84
2023-01-26T15:31:39.680Z,65.32
2023-01-26T15:34:06.668Z,65.46
2023-01-26T15:36:50.731Z,64.73
2023-01-26T15:39:19.537Z,64.95
2023-01-26T15:42:01.693Z,64.84
2023-01-26T15:44:28.406Z,64.81
2023-01-26T15:46:56.487Z,64.79
2023-01-26T15:49:23.435Z,64.44
2023-01-26T15:51:51.178Z,64.80
2023-01-26T15:54:19.181Z,64.54
2023-01-26T15:56:45.826Z,65.40
2023-01-26T15:59:12.472Z,65.64
2023-01-26T16:01:39.270Z,65.97
2023-01-26T16:04:05.880Z,64.49
2023-01-26T16:06:33.542Z,65.01
2023-01-26T16:09:00.188Z,64.53
2023-01-26T16:11:29.915Z,64.57
2023-01-26T16:14:03.376Z,64.02
2023-01-26T16:16:31.998Z,63.69
2023-01-26T16:18:58.968Z,64.92
2023-01-26T16:21:33.023Z,63.43
2023-01-26T16:24:01.259Z,64.38
2023-01-26T16:26:28.964Z,64.19
2023-01-26T16:28:56.247Z,63.82
2023-01-26T16:31:31.570Z,63.88
2023-01-26T16:34:00.083Z,64.08
2023-01-26T16:36:26.800Z,64.52
2023-01-26T16:38:53.448Z,64.39
2023-01-26T16:41:20.055Z,64.41
2023-01-26T16:43:46.700Z,64.77
2023-01-26T16:46:13.286Z,64.70
2023-01-26T16:48:40.657Z,64.62
2023-01-26T16:51:29.385Z,64.46
2023-01-26T16:53:56.879Z,64.34
2023-01-26T16:56:24.686Z,63.61
2023-01-26T16:58:51.717Z,63.46
2023-01-26T17:01:22.384Z,63.13
2023-01-26T17:03:49.863Z,64.16
2023-01-26T17:06:18.074Z,64.33
2023-01-26T17:08:45.383Z,64.12
2023-01-26T17:11:22.876Z,64.02
2023-01-26T17:13:49.939Z,65.11
2023-01-26T17:16:19.646Z,65.20
2023-01-26T17:18:47.415Z,64.32
2023-01-26T17:21:16.289Z,64.19
2023-01-26T17:23:46.294Z,64.50
2023-01-26T17:26:15.356Z,64.47
2023-01-26T17:28:46.438Z,64.49
2023-01-26T17:31:17.645Z,64.79
2023-01-26T17:33:46.790Z,65.47
2023-01-26T17:36:15.260Z,65.86
2023-01-26T17:38:42.452Z,65.28
2023-01-26T17:41:09.594Z,65.38
2023-01-26T17:43:36.441Z,64.62
2023-01-26T17:46:14.711Z,64.95
2023-01-26T17:48:44.207Z,64.22
2023-01-26T17:51:17.691Z,65.07
2023-01-26T17:53:46.659Z,64.77
2023-01-26T17:56:18.988Z,65.41
2023-01-26T17:58:54.261Z,65.21
2023-01-26T18:01:23.269Z,65.21
2023-01-26T18:03:50.045Z,65.48
2023-01-26T18:06:17.452Z,65.90
2023-01-26T18:08:44.117Z,64.92
2023-01-26T18:11:13.068Z,65.37
2023-01-26T18:13:40.054Z,65.93
2023-01-26T18:16:08.064Z,66.58
2023-01-26T18:18:35.079Z,66.96
2023-01-26T18:21:19.824Z,67.28
2023-01-26T18:23:47.506Z,67.46
2023-01-26T18:26:16.017Z,67.70
2023-01-26T18:28:43.998Z,67.53
2023-01-26T18:31:19.722Z,69.46
2023-01-26T18:33:47.025Z,69.64
2023-01-26T18:36:16.080Z,69.38
2023-01-26T18:38:44.564Z,69.13
2023-01-26T18:41:13.265Z,69.03
2023-01-26T18:43:40.232Z,69.31
2023-01-26T18:46:07.585Z,68.64
2023-01-26T18:48:35.263Z,69.29
2023-01-26T18:51:02.717Z,70.06
2023-01-26T18:53:29.891Z,70.59
2023-01-26T18:56:12.425Z,70.27
2023-01-26T18:58:40.076Z,70.78
2023-01-26T19:01:13.140Z,71.52
2023-01-26T19:03:42.248Z,71.52
2023-01-26T19:06:09.565Z,71.74
2023-01-26T19:08:36.204Z,71.09
2023-01-26T19:11:07.964Z,71.89
2023-01-26T19:13:34.664Z,71.22
2023-01-26T19:16:01.836Z,71.54
2023-01-26T19:18:28.803Z,71.66
2023-01-26T19:20:57.775Z,72.24
2023-01-26T19:23:24.778Z,72.22
2023-01-26T19:25:51.541Z,71.80
2023-01-26T19:28:18.548Z,73.01
2023-01-26T19:30:45.171Z,74.07
2023-01-26T19:33:23.928Z,73.86
2023-01-26T19:35:52.494Z,74.30
2023-01-26T19:38:21.031Z,74.87
2023-01-26T19:40:49.376Z,75.13
2023-01-26T19:43:18.915Z,75.92
2023-01-26T19:45:54.200Z,76.13
2023-01-26T19:48:23.358Z,76.12
2023-01-26T19:50:59.172Z,75.35
2023-01-26T19:53:26.980Z,75.98
2023-01-26T19:55:53.708Z,76.27
2023-01-26T19:58:20.341Z,75.83
2023-01-26T20:00:46.947Z,76.71
2023-01-26T20:03:13.553Z,77.88
2023-01-26T20:05:40.301Z,77.73
2023-01-26T20:08:06.890Z,77.96
2023-01-26T20:10:33.675Z,77.59
2023-01-26T20:13:01.234Z,77.56
2023-01-26T20:15:27.976Z,78.16
2023-01-26T20:17:54.552Z,78.20
2023-01-26T20:20:21.196Z,78.59
2023-01-26T20:22:47.754Z,78.62
2023-01-26T20:25:14.558Z,78.35
2023-01-26T20:27:41.209Z,78.97
2023-01-26T20:30:08.796Z,78.79
2023-01-26T20:32:35.551Z,79.40
2023-01-26T20:35:02.439Z,79.54
2023-01-26T20:37:30.044Z,79.27
2023-01-26T20:39:56.713Z,79.84
2023-01-26T20:42:23.442Z,79.56
2023-01-26T20:44:50.864Z,79.28
2023-01-26T20:47:17.694Z,79.56
2023-01-26T20:49:44.400Z,79.83
2023-01-26T20:52:11.151Z,79.82
2023-01-26T20:54:37.823Z,79.73
2023-01-26T20:57:04.433Z,79.73
2023-01-26T20:59:31.074Z,79.54
2023-01-26T21:01:57.896Z,79.68
2023-01-26T21:04:24.988Z,80.09
2023-01-26T21:06:51.622Z,79.78
2023-01-26T21:09:18.635Z,79.18
2023-01-26T21:11:45.299Z,78.61
2023-01-26T21:14:13.572Z,79.22
2023-01-26T21:16:40.572Z,78.89
2023-01-26T21:19:07.309Z,78.81
2023-01-26T21:21:33.983Z,78.99
2023-01-26T21:24:00.728Z,79.43
2023-01-26T21:26:30.487Z,79.57
2023-01-26T21:28:59.681Z,79.19
2023-01-26T21:31:30.302Z,78.87
2023-01-26T21:33:58.539Z,79.26
2023-01-26T21:36:27.465Z,79.39
2023-01-26T21:38:56.355Z,79.15
2023-01-26T21:41:45.579Z,79.04
2023-01-26T21:44:24.822Z,79.61
2023-01-26T21:46:54.346Z,81.43
2023-01-26T21:49:21.744Z,80.57
2023-01-26T21:52:07.081Z,79.81
2023-01-26T21:54:34.793Z,79.84
2023-01-26T21:57:02.795Z,79.21
2023-01-26T21:59:30.589Z,79.43
2023-01-26T22:01:58.407Z,78.77
2023-01-26T22:04:28.748Z,80.57
2023-01-26T22:06:56.620Z,79.11
2023-01-26T22:09:24.132Z,79.57
2023-01-26T22:11:51.714Z,79.62
2023-01-26T22:14:23.546Z,79.86
2023-01-26T22:16:50.295Z,79.58
2023-01-26T22:19:17.208Z,79.81
2023-01-26T22:21:44.745Z,79.94
2023-01-26T22:24:14.298Z,78.63
2023-01-26T22:26:41.781Z,79.34
2023-01-26T22:29:10.909Z,78.19
2023-01-26T22:31:37.613Z,79.03
2023-01-26T22:34:04.347Z,78.70
2023-01-26T22:36:31.327Z,79.37
2023-01-26T22:38:59.665Z,80.15
2023-01-26T22:41:28.529Z,79.91
2023-01-26T22:43:57.766Z,79.87
2023-01-26T22:46:25.866Z,79.39
2023-01-26T22:48:53.313Z,78.57
2023-01-26T22:51:22.589Z,79.46
2023-01-26T22:53:50.772Z,80.31
2023-01-26T22:56:18.235Z,80.25
2023-01-26T22:58:57.756Z,78.92
2023-01-26T23:01:27.782Z,78.15
2023-01-26T23:03:55.540Z,77.91
2023-01-26T23:06:22.526Z,78.51
2023-01-26T23:08:49.699Z,78.40
2023-01-26T23:11:34.600Z,78.80
2023-01-26T23:14:01.267Z,79.21
2023-01-26T23:16:28.429Z,79.70
2023-01-26T23:18:57.443Z,80.52
2023-01-26T23:21:25.597Z,80.70
2023-01-26T23:23:52.552Z,79.35
2023-01-26T23:26:20.434Z,80.34
2023-01-26T23:28:47.102Z,79.84
2023-01-26T23:31:16.058Z,79.46
2023-01-26T23:33:43.166Z,79.16
2023-01-26T23:36:11.524Z,79.13
2023-01-26T23:38:38.293Z,79.29
2023-01-26T23:41:05.499Z,79.46
2023-01-26T23:43:32.321Z,79.51
2023-01-26T23:45:59.101Z,80.24
2023-01-26T23:48:26.739Z,80.26
2023-01-26T23:51:01.616Z,80.09
2023-01-26T23:53:29.664Z,79.68
2023-01-26T23:55:58.666Z,81.25
2023-01-26T23:58:25.362Z,81.28
